createdAt,value
2017-11-17T00:00:10.416Z,1.9
2017-11-17T00:01:29.060Z,2
2017-11-17T00:02:47.746Z,2
2017-11-17T00:04:06.388Z,2.1
2017-11-17T00:05:25.085Z,2
2017-11-17T00:06:43.757Z,2
2017-11-17T00:08:02.401Z,2
2017-11-17T00:09:21.034Z,2
2017-11-17T00:10:39.702Z,2
2017-11-17T00:11:58.359Z,2.1
2017-11-17T00:13:17.073Z,2
2017-11-17T00:14:35.716Z,2
2017-11-17T00:15:54.389Z,2
2017-11-17T00:17:13.073Z,2
2017-11-17T00:18:31.716Z,2
2017-11-17T00:19:50.365Z,2.1
2017-11-17T00:21:09.076Z,2.1
2017-11-17T00:22:27.731Z,2
2017-11-17T00:23:46.373Z,2.1
2017-11-17T00:25:05.012Z,2.1
2017-11-17T00:26:23.729Z,2.1
2017-11-17T00:27:42.413Z,2.1
2017-11-17T00:29:01.053Z,2.2
2017-11-17T00:30:19.694Z,2.3
2017-11-17T00:31:38.371Z,2.3
2017-11-17T00:32:57.025Z,2.4
2017-11-17T00:34:15.679Z,2.4
2017-11-17T00:35:34.352Z,2.4
2017-11-17T00:36:52.990Z,2.4
2017-11-17T00:38:11.627Z,2.3
2017-11-17T00:39:30.266Z,2.3
2017-11-17T00:40:48.961Z,2.3
2017-11-17T00:42:07.636Z,2.3
2017-11-17T00:43:26.303Z,2.3
2017-11-17T00:44:44.939Z,2.4
2017-11-17T00:46:03.597Z,2.4
2017-11-17T00:47:22.243Z,2.5
2017-11-17T00:48:40.889Z,2.5
2017-11-17T00:49:59.570Z,2.5
2017-11-17T00:51:18.208Z,2.5
2017-11-17T00:52:36.934Z,2.6
2017-11-17T00:53:55.572Z,2.6
2017-11-17T00:55:14.259Z,2.7
2017-11-17T00:56:32.914Z,2.6
2017-11-17T00:57:51.561Z,2.7
2017-11-17T00:59:10.227Z,2.7
2017-11-17T01:00:28.918Z,2.7
2017-11-17T01:01:47.603Z,2.7
2017-11-17T01:03:06.298Z,2.7
2017-11-17T01:04:24.949Z,2.7
2017-11-17T01:05:43.607Z,2.8
2017-11-17T01:07:02.254Z,2.8
2017-11-17T01:08:20.905Z,2.9
2017-11-17T01:09:39.598Z,2.9
2017-11-17T01:10:58.276Z,2.9
2017-11-17T01:12:16.932Z,2.9
2017-11-17T01:13:35.580Z,2.9
2017-11-17T01:14:54.313Z,2.8
2017-11-17T01:16:12.948Z,2.8
2017-11-17T01:17:31.605Z,2.8
2017-11-17T01:18:50.257Z,2.8
2017-11-17T01:20:08.909Z,2.8
2017-11-17T01:21:27.558Z,2.8
2017-11-17T01:22:46.199Z,2.9
2017-11-17T01:24:04.865Z,2.9
2017-11-17T01:25:23.567Z,2.9
2017-11-17T01:26:42.269Z,2.9
2017-11-17T01:28:00.904Z,2.9
2017-11-17T01:29:19.586Z,3
2017-11-17T01:30:38.295Z,3
2017-11-17T01:31:56.946Z,3
2017-11-17T01:33:15.586Z,3.1
2017-11-17T01:34:34.235Z,3.1
2017-11-17T01:35:52.880Z,3.1
2017-11-17T01:37:11.532Z,3.1
2017-11-17T01:38:30.173Z,3.1
2017-11-17T01:39:48.827Z,3.2
2017-11-17T01:41:07.468Z,3.2
2017-11-17T01:42:26.124Z,3.2
2017-11-17T01:43:44.773Z,3.3
2017-11-17T01:45:03.507Z,3.2
2017-11-17T01:46:22.213Z,3.2
2017-11-17T01:47:40.859Z,3.1
2017-11-17T01:48:59.498Z,3.1
2017-11-17T01:50:18.167Z,3.1
2017-11-17T01:51:36.856Z,3.2
2017-11-17T01:52:55.522Z,3.1
2017-11-17T01:54:14.214Z,3.1
2017-11-17T01:55:32.938Z,3.2
2017-11-17T01:56:51.642Z,3.2
2017-11-17T01:58:10.326Z,3.3
2017-11-17T01:59:28.968Z,3.3
2017-11-17T02:00:47.613Z,3.4
2017-11-17T02:02:06.256Z,3.4
2017-11-17T02:03:24.897Z,3.4
2017-11-17T02:04:43.546Z,3.5
2017-11-17T02:06:02.268Z,3.4
2017-11-17T02:07:20.909Z,3.4
2017-11-17T02:08:39.607Z,3.4
2017-11-17T02:09:58.280Z,3.4
2017-11-17T02:11:16.950Z,3.4
2017-11-17T02:12:35.594Z,3.3
2017-11-17T02:13:54.278Z,3.3
2017-11-17T02:15:12.949Z,3.3
2017-11-17T02:16:31.602Z,3.4
2017-11-17T02:17:50.251Z,3.4
2017-11-17T02:19:08.892Z,3.4
2017-11-17T02:20:27.586Z,3.5
2017-11-17T02:21:46.258Z,3.5
2017-11-17T02:23:04.922Z,3.5
2017-11-17T02:24:23.571Z,3.5
2017-11-17T02:25:42.222Z,3.5
2017-11-17T02:27:00.890Z,3.6
2017-11-17T02:28:19.538Z,3.6
2017-11-17T02:29:38.210Z,3.6
2017-11-17T02:30:56.898Z,3.7
2017-11-17T02:32:15.563Z,3.7
2017-11-17T02:33:34.239Z,3.7
2017-11-17T02:34:52.908Z,3.8
2017-11-17T02:36:11.544Z,3.8
2017-11-17T02:37:30.258Z,3.8
2017-11-17T02:38:48.929Z,3.8
2017-11-17T02:40:07.625Z,3.7
2017-11-17T02:41:26.324Z,3.7
2017-11-17T02:42:45.016Z,3.7
2017-11-17T02:44:03.669Z,3.7
2017-11-17T02:45:22.343Z,3.7
2017-11-17T02:46:40.995Z,3.7
2017-11-17T02:47:59.655Z,3.7
2017-11-17T02:49:18.374Z,3.8
2017-11-17T02:50:37.022Z,3.8
2017-11-17T02:51:55.669Z,3.8
2017-11-17T02:53:14.338Z,3.8
2017-11-17T02:54:33.048Z,3.8
2017-11-17T02:55:51.687Z,3.9
2017-11-17T02:57:10.375Z,3.8
2017-11-17T02:58:29.098Z,3.8
2017-11-17T02:59:47.809Z,3.8
2017-11-17T03:01:06.453Z,3.8
2017-11-17T03:02:25.155Z,3.8
2017-11-17T03:03:43.808Z,3.8
2017-11-17T03:05:02.468Z,3.8
2017-11-17T03:06:21.110Z,3.8
2017-11-17T03:07:39.803Z,3.9
2017-11-17T03:08:58.472Z,3.8
2017-11-17T03:10:17.113Z,3.8
2017-11-17T03:11:35.756Z,3.8
2017-11-17T03:12:54.405Z,3.7
2017-11-17T03:14:13.120Z,3.8
2017-11-17T03:15:31.801Z,3.8
2017-11-17T03:16:50.505Z,3.8
2017-11-17T03:18:09.152Z,3.8
2017-11-17T03:19:27.876Z,3.9
2017-11-17T03:20:46.605Z,3.9
2017-11-17T03:22:05.261Z,3.9
2017-11-17T03:23:23.910Z,3.9
2017-11-17T03:24:42.564Z,3.9
2017-11-17T03:26:01.273Z,3.9
2017-11-17T03:27:19.921Z,3.9
2017-11-17T03:28:38.590Z,3.9
2017-11-17T03:29:57.259Z,3.9
2017-11-17T03:31:15.950Z,3.9
2017-11-17T03:32:34.644Z,3.9
2017-11-17T03:33:53.296Z,3.8
2017-11-17T03:35:11.994Z,3.8
2017-11-17T03:36:30.645Z,3.8
2017-11-17T03:37:49.293Z,3.9
2017-11-17T03:39:07.949Z,3.9
2017-11-17T03:40:26.664Z,3.9
2017-11-17T03:41:45.365Z,4
2017-11-17T03:43:04.031Z,4
2017-11-17T03:44:22.700Z,4
2017-11-17T03:45:41.412Z,4
2017-11-17T03:47:00.099Z,4
2017-11-17T03:48:18.788Z,4.1
2017-11-17T03:49:37.442Z,4
2017-11-17T03:50:56.206Z,4
2017-11-17T03:52:14.853Z,4.1
2017-11-17T03:53:33.505Z,4.1
2017-11-17T03:54:52.158Z,4.1
2017-11-17T03:56:10.871Z,4.1
2017-11-17T03:57:29.568Z,4.2
2017-11-17T03:58:48.219Z,4.2
2017-11-17T04:00:06.859Z,4.3
2017-11-17T04:01:25.550Z,4.3
2017-11-17T04:02:44.197Z,4.3
2017-11-17T04:04:02.849Z,4.3
2017-11-17T04:05:21.499Z,4.3
2017-11-17T04:06:40.172Z,4.3
2017-11-17T04:07:58.834Z,4.4
2017-11-17T04:09:17.554Z,4.4
2017-11-17T04:10:36.245Z,4.4
2017-11-17T04:11:54.927Z,4.4
2017-11-17T04:13:13.578Z,4.4
2017-11-17T04:14:32.226Z,4.4
2017-11-17T04:15:50.875Z,4.4
2017-11-17T04:17:09.547Z,4.4
2017-11-17T04:18:28.189Z,4.4
2017-11-17T04:19:46.869Z,4.3
2017-11-17T04:21:05.514Z,4.3
2017-11-17T04:22:24.190Z,4.3
2017-11-17T04:23:42.854Z,4.3
2017-11-17T04:25:01.505Z,4.3
2017-11-17T04:26:20.177Z,4.3
2017-11-17T04:27:38.902Z,4.3
2017-11-17T04:28:57.580Z,4.3
2017-11-17T04:30:16.228Z,4.4
2017-11-17T04:31:34.908Z,4.4
2017-11-17T04:32:53.552Z,4.4
2017-11-17T04:34:12.198Z,4.4
2017-11-17T04:35:30.896Z,4.4
2017-11-17T04:36:49.588Z,4.4
2017-11-17T04:38:08.263Z,4.4
2017-11-17T04:39:26.916Z,4.4
2017-11-17T04:40:45.564Z,4.5
2017-11-17T04:42:04.207Z,4.5
2017-11-17T04:43:22.904Z,4.5
2017-11-17T04:44:41.551Z,4.5
2017-11-17T04:46:00.229Z,4.5
2017-11-17T04:47:18.930Z,4.5
2017-11-17T04:48:37.600Z,4.5
2017-11-17T04:49:56.290Z,4.5
2017-11-17T04:51:14.931Z,4.5
2017-11-17T04:52:33.587Z,4.5
2017-11-17T04:53:52.256Z,4.5
2017-11-17T04:55:10.935Z,4.5
2017-11-17T04:56:29.623Z,4.5
2017-11-17T04:57:48.320Z,4.5
2017-11-17T04:59:06.971Z,4.5
2017-11-17T05:00:25.624Z,4.5
2017-11-17T05:01:44.291Z,4.5
2017-11-17T05:03:02.936Z,4.6
2017-11-17T05:04:21.606Z,4.6
2017-11-17T05:05:40.306Z,4.5
2017-11-17T05:06:58.992Z,4.6
2017-11-17T05:08:17.650Z,4.6
2017-11-17T05:09:36.322Z,4.6
2017-11-17T05:10:55.000Z,4.6
2017-11-17T05:12:13.703Z,4.6
2017-11-17T05:13:32.375Z,4.6
2017-11-17T05:14:51.077Z,4.6
2017-11-17T05:16:09.730Z,4.6
2017-11-17T05:17:28.383Z,4.6
2017-11-17T05:18:47.027Z,4.6
2017-11-17T05:20:05.739Z,4.6
2017-11-17T05:21:24.391Z,4.6
2017-11-17T05:22:43.039Z,4.6
2017-11-17T05:24:01.742Z,4.6
2017-11-17T05:25:20.421Z,4.6
2017-11-17T05:26:39.123Z,4.6
2017-11-17T05:27:57.831Z,4.6
2017-11-17T05:29:16.530Z,4.5
2017-11-17T05:30:35.180Z,4.5
2017-11-17T05:31:53.836Z,4.5
2017-11-17T05:33:12.518Z,4.5
2017-11-17T05:34:31.153Z,4.5
2017-11-17T05:35:49.823Z,4.6
2017-11-17T05:37:08.526Z,4.6
2017-11-17T05:38:27.196Z,4.6
2017-11-17T05:39:45.846Z,4.6
2017-11-17T05:41:04.504Z,4.6
2017-11-17T05:42:23.179Z,4.6
2017-11-17T05:43:41.820Z,4.5
2017-11-17T05:45:00.458Z,4.6
2017-11-17T05:46:19.118Z,4.6
2017-11-17T05:47:37.811Z,4.6
2017-11-17T05:48:56.468Z,4.6
2017-11-17T05:50:15.169Z,4.6
2017-11-17T05:51:33.833Z,4.5
2017-11-17T05:52:52.499Z,4.6
2017-11-17T05:54:11.151Z,4.6
2017-11-17T05:55:29.799Z,4.6
2017-11-17T05:56:48.456Z,4.6
2017-11-17T05:58:07.148Z,4.6
2017-11-17T05:59:25.799Z,4.6
2017-11-17T06:00:44.450Z,4.6
2017-11-17T06:02:03.124Z,4.7
2017-11-17T06:03:21.769Z,4.7
2017-11-17T06:04:40.418Z,4.7
2017-11-17T06:05:59.115Z,4.7
2017-11-17T06:07:17.811Z,4.7
2017-11-17T06:08:36.462Z,4.7
2017-11-17T06:09:55.104Z,4.8
2017-11-17T06:11:13.749Z,4.7
2017-11-17T06:12:32.414Z,4.8
2017-11-17T06:13:51.084Z,4.8
2017-11-17T06:15:09.677Z,4.8
2017-11-17T06:16:28.319Z,4.8
2017-11-17T06:17:46.995Z,4.8
2017-11-17T06:19:05.646Z,4.8
2017-11-17T06:20:24.334Z,4.8
2017-11-17T06:21:43.033Z,4.8
2017-11-17T06:23:01.694Z,4.7
2017-11-17T06:24:20.335Z,4.7
2017-11-17T06:25:38.970Z,4.7
2017-11-17T06:26:57.622Z,4.7
2017-11-17T06:28:16.285Z,4.8
2017-11-17T06:29:34.953Z,4.8
2017-11-17T06:30:53.598Z,4.8
2017-11-17T06:32:12.257Z,4.8
2017-11-17T06:33:30.932Z,4.8
2017-11-17T06:34:49.632Z,4.7
2017-11-17T06:36:08.336Z,4.8
2017-11-17T06:37:27.037Z,4.8
2017-11-17T06:38:45.698Z,4.8
2017-11-17T06:40:04.393Z,4.8
2017-11-17T06:41:23.058Z,4.8
2017-11-17T06:42:41.702Z,4.8
2017-11-17T06:44:00.431Z,4.9
2017-11-17T06:45:19.084Z,4.9
2017-11-17T06:46:37.765Z,4.9
2017-11-17T06:47:56.407Z,4.9
2017-11-17T06:49:15.056Z,4.9
2017-11-17T06:50:33.695Z,4.9
2017-11-17T06:51:52.343Z,4.9
2017-11-17T06:53:10.986Z,4.9
2017-11-17T06:54:29.662Z,4.9
2017-11-17T06:55:48.362Z,4.8
2017-11-17T06:57:07.046Z,4.9
2017-11-17T06:58:25.738Z,4.9
2017-11-17T06:59:44.389Z,5
2017-11-17T07:01:03.051Z,5
2017-11-17T07:02:21.698Z,5
2017-11-17T07:03:40.364Z,5
2017-11-17T07:04:59.016Z,5
2017-11-17T07:06:17.667Z,5
2017-11-17T07:07:36.377Z,5
2017-11-17T07:08:55.030Z,5.1
2017-11-17T07:10:13.688Z,5.1
2017-11-17T07:11:32.365Z,5.1
2017-11-17T07:12:51.009Z,5.1
2017-11-17T07:14:09.663Z,5.1
2017-11-17T07:15:28.311Z,5.1
2017-11-17T07:16:46.995Z,5.1
2017-11-17T07:18:05.639Z,5.2
2017-11-17T07:19:24.284Z,5.2
2017-11-17T07:20:42.988Z,5.2
2017-11-17T07:22:01.638Z,5.2
2017-11-17T07:23:20.342Z,5.2
2017-11-17T07:24:39.046Z,5.3
2017-11-17T07:25:57.699Z,5.3
2017-11-17T07:27:16.383Z,5.3
2017-11-17T07:28:35.034Z,5.3
2017-11-17T07:29:53.702Z,5.2
2017-11-17T07:31:12.391Z,5.2
2017-11-17T07:32:31.117Z,5.2
2017-11-17T07:33:49.798Z,5.2
2017-11-17T07:35:08.468Z,5.2
2017-11-17T07:36:27.120Z,5.2
2017-11-17T07:37:45.775Z,5.3
2017-11-17T07:39:04.420Z,5.3
2017-11-17T07:40:23.064Z,5.3
2017-11-17T07:41:41.765Z,5.3
2017-11-17T07:43:00.410Z,5.3
2017-11-17T07:44:19.106Z,5.3
2017-11-17T07:45:37.785Z,5.3
2017-11-17T07:46:56.437Z,5.4
2017-11-17T07:48:15.187Z,5.4
2017-11-17T07:49:33.825Z,5.4
2017-11-17T07:50:52.465Z,5.5
2017-11-17T07:52:11.129Z,5.5
2017-11-17T07:53:29.783Z,5.5
2017-11-17T07:54:48.476Z,5.4
2017-11-17T07:56:07.136Z,5.3
2017-11-17T07:57:25.795Z,5.3
2017-11-17T07:58:44.439Z,5.2
2017-11-17T08:00:03.092Z,5.2
2017-11-17T08:01:21.790Z,5.2
2017-11-17T08:02:40.449Z,5.2
2017-11-17T08:03:59.099Z,5.2
2017-11-17T08:05:17.741Z,5.2
2017-11-17T08:06:36.387Z,5.3
2017-11-17T08:07:55.117Z,5.3
2017-11-17T08:09:13.820Z,5.4
2017-11-17T08:10:32.505Z,5.4
2017-11-17T08:11:51.149Z,5.4
2017-11-17T08:13:09.820Z,5.5
2017-11-17T08:14:28.491Z,5.5
2017-11-17T08:15:47.136Z,5.5
2017-11-17T08:17:05.779Z,5.6
2017-11-17T08:18:24.495Z,5.5
2017-11-17T08:19:43.149Z,5.4
2017-11-17T08:21:01.817Z,5.4
2017-11-17T08:22:20.455Z,5.4
2017-11-17T08:23:39.119Z,5.4
2017-11-17T08:24:57.763Z,5.4
2017-11-17T08:26:16.451Z,5.4
2017-11-17T08:27:35.098Z,5.4
2017-11-17T08:28:53.808Z,5.3
2017-11-17T08:30:12.453Z,5.4
2017-11-17T08:31:31.100Z,5.5
2017-11-17T08:32:49.766Z,5.5
2017-11-17T08:34:08.493Z,5.5
2017-11-17T08:35:27.200Z,5.4
2017-11-17T08:36:45.879Z,5.4
2017-11-17T08:38:04.530Z,5.4
2017-11-17T08:39:23.228Z,5.3
2017-11-17T08:40:41.868Z,5.3
2017-11-17T08:42:00.515Z,5.4
2017-11-17T08:43:19.152Z,5.4
2017-11-17T08:44:37.835Z,5.3
2017-11-17T08:45:56.514Z,5.4
2017-11-17T08:47:15.149Z,5.4
2017-11-17T08:48:33.834Z,5.4
2017-11-17T08:49:52.493Z,5.3
2017-11-17T08:51:11.157Z,5.3
2017-11-17T08:52:29.856Z,5.3
2017-11-17T08:53:48.536Z,5.3
2017-11-17T08:55:07.196Z,5.3
2017-11-17T08:56:25.843Z,5.3
2017-11-17T08:57:44.489Z,5.3
2017-11-17T08:59:03.153Z,5.3
2017-11-17T09:00:21.819Z,5.3
2017-11-17T09:01:40.464Z,5.3
2017-11-17T09:02:59.116Z,5.3
2017-11-17T09:04:17.774Z,5.3
2017-11-17T09:05:36.450Z,5.3
2017-11-17T09:06:55.165Z,5.3
2017-11-17T09:08:13.853Z,5.3
2017-11-17T09:09:32.501Z,5.4
2017-11-17T09:10:51.143Z,5.5
2017-11-17T09:12:09.820Z,5.5
2017-11-17T09:13:28.464Z,5.5
2017-11-17T09:14:47.136Z,5.5
2017-11-17T09:16:05.799Z,5.5
2017-11-17T09:17:24.450Z,5.5
2017-11-17T09:18:43.093Z,5.5
2017-11-17T09:20:01.763Z,5.5
2017-11-17T09:21:20.606Z,5.6
2017-11-17T09:22:39.269Z,5.6
2017-11-17T09:23:57.907Z,5.6
2017-11-17T09:25:16.565Z,5.6
2017-11-17T09:26:35.211Z,5.6
2017-11-17T09:27:53.870Z,5.6
2017-11-17T09:29:12.514Z,5.5
2017-11-17T09:30:31.172Z,5.5
2017-11-17T09:31:49.836Z,5.4
2017-11-17T09:33:08.522Z,5.5
2017-11-17T09:34:27.196Z,5.4
2017-11-17T09:35:45.837Z,5.4
2017-11-17T09:37:04.492Z,5.4
2017-11-17T09:38:23.165Z,5.5
2017-11-17T09:39:41.870Z,5.5
2017-11-17T09:41:00.563Z,5.6
2017-11-17T09:42:19.238Z,5.6
2017-11-17T09:43:37.927Z,5.7
2017-11-17T09:44:56.598Z,5.7
2017-11-17T09:46:15.284Z,5.7
2017-11-17T09:47:33.942Z,5.7
2017-11-17T09:48:52.590Z,5.8
2017-11-17T09:50:11.288Z,5.9
2017-11-17T09:51:29.932Z,5.8
2017-11-17T09:52:48.617Z,5.9
2017-11-17T09:54:07.273Z,5.9
2017-11-17T09:55:25.917Z,6
2017-11-17T09:56:44.633Z,6.1
2017-11-17T09:58:03.289Z,6.1
2017-11-17T09:59:21.934Z,6.1
2017-11-17T10:00:40.607Z,6.2
2017-11-17T10:01:59.290Z,6.3
2017-11-17T10:03:17.955Z,6.5
2017-11-17T10:04:36.606Z,6.7
2017-11-17T10:05:55.246Z,7
2017-11-17T10:07:13.946Z,7.2
2017-11-17T10:08:32.648Z,7.4
2017-11-17T10:09:51.324Z,7.6
2017-11-17T10:11:09.969Z,7.7
2017-11-17T10:12:28.648Z,7.7
2017-11-17T10:13:47.308Z,7.6
2017-11-17T10:15:05.975Z,7.5
2017-11-17T10:16:24.624Z,7.5
2017-11-17T10:17:43.296Z,7.3
2017-11-17T10:19:01.959Z,7.4
2017-11-17T10:20:20.626Z,7.4
2017-11-17T10:21:39.326Z,7.3
2017-11-17T10:22:57.985Z,7.2
2017-11-17T10:24:16.666Z,7.1
2017-11-17T10:25:35.338Z,7
2017-11-17T10:26:54.039Z,6.8
2017-11-17T10:28:12.687Z,6.5
2017-11-17T10:29:31.343Z,6.5
2017-11-17T10:30:49.987Z,6.4
2017-11-17T10:32:08.634Z,6.5
2017-11-17T10:33:27.323Z,6.5
2017-11-17T10:34:46.018Z,6.6
2017-11-17T10:36:04.714Z,6.6
2017-11-17T10:37:23.404Z,6.6
2017-11-17T10:38:42.061Z,6.4
2017-11-17T10:40:00.730Z,6.4
2017-11-17T10:41:19.464Z,6.4
2017-11-17T10:42:38.121Z,6.3
2017-11-17T10:43:56.824Z,6.3
2017-11-17T10:45:15.493Z,6.2
2017-11-17T10:46:34.140Z,6.3
2017-11-17T10:47:52.776Z,6.3
2017-11-17T10:49:11.417Z,6.2
2017-11-17T10:50:30.070Z,6.3
2017-11-17T10:51:48.714Z,6.3
2017-11-17T10:53:07.361Z,6.4
2017-11-17T10:54:26.040Z,6.4
2017-11-17T10:55:44.725Z,6.5
2017-11-17T10:57:03.424Z,6.6
2017-11-17T10:58:22.075Z,6.7
2017-11-17T10:59:40.741Z,6.9
2017-11-17T11:00:59.452Z,7
2017-11-17T11:02:18.143Z,7
2017-11-17T11:03:36.789Z,7
2017-11-17T11:04:55.460Z,7.1
2017-11-17T11:06:14.115Z,7.2
2017-11-17T11:07:32.765Z,7.2
2017-11-17T11:08:51.464Z,7.3
2017-11-17T11:10:10.122Z,7.3
2017-11-17T11:11:28.785Z,7.3
2017-11-17T11:12:47.444Z,7.4
2017-11-17T11:14:06.092Z,7.4
2017-11-17T11:15:24.769Z,7.5
2017-11-17T11:16:43.438Z,7.6
2017-11-17T11:18:02.080Z,7.6
2017-11-17T11:19:20.748Z,7.6
2017-11-17T11:20:39.453Z,7.7
2017-11-17T11:21:58.120Z,7.6
2017-11-17T11:23:16.775Z,7.5
2017-11-17T11:24:35.413Z,7.5
2017-11-17T11:25:54.069Z,7.3
2017-11-17T11:27:12.772Z,7.2
2017-11-17T11:28:31.429Z,7.2
2017-11-17T11:29:50.077Z,7.1
2017-11-17T11:31:08.729Z,7.1
2017-11-17T11:32:27.430Z,7.2
2017-11-17T11:33:46.098Z,7.3
2017-11-17T11:35:04.773Z,7.3
2017-11-17T11:36:23.418Z,7.3
2017-11-17T11:37:42.095Z,7.3
2017-11-17T11:39:00.802Z,7.3
2017-11-17T11:40:19.448Z,7.1
2017-11-17T11:41:38.107Z,7.2
2017-11-17T11:42:56.780Z,7.3
2017-11-17T11:44:15.431Z,7.3
2017-11-17T11:45:34.137Z,7.4
2017-11-17T11:46:52.837Z,7.4
2017-11-17T11:48:11.494Z,7.4
2017-11-17T11:49:30.177Z,7.4
2017-11-17T11:50:48.835Z,7.5
2017-11-17T11:52:07.489Z,7.6
2017-11-17T11:53:26.150Z,7.5
2017-11-17T11:54:44.821Z,7.4
2017-11-17T11:56:03.470Z,7.4
2017-11-17T11:57:22.149Z,7.4
2017-11-17T11:58:40.879Z,7.4
2017-11-17T11:59:59.545Z,7.4
2017-11-17T12:01:18.231Z,7.4
2017-11-17T12:02:36.875Z,7.5
2017-11-17T12:03:55.555Z,7.6
2017-11-17T12:05:14.207Z,7.8
2017-11-17T12:06:32.852Z,8
2017-11-17T12:07:51.516Z,8.1
2017-11-17T12:09:10.179Z,8.2
2017-11-17T12:10:28.840Z,8.2
2017-11-17T12:11:47.513Z,8.2
2017-11-17T12:13:06.208Z,8.3
2017-11-17T12:14:24.859Z,8.3
2017-11-17T12:15:43.524Z,8.2
2017-11-17T12:17:02.174Z,8.2
2017-11-17T12:18:20.844Z,8.3
2017-11-17T12:19:39.537Z,8.5
2017-11-17T12:20:58.182Z,8.5
2017-11-17T12:22:16.837Z,8.4
2017-11-17T12:23:35.502Z,8.4
2017-11-17T12:24:54.201Z,8.2
2017-11-17T12:26:12.852Z,8.1
2017-11-17T12:27:31.504Z,8.2
2017-11-17T12:28:50.176Z,8.2
2017-11-17T12:30:08.845Z,8.1
2017-11-17T12:31:27.544Z,8.2
2017-11-17T12:32:46.237Z,8.2
2017-11-17T12:34:04.930Z,8.2
2017-11-17T12:35:23.606Z,8.2
2017-11-17T12:36:42.252Z,8.2
2017-11-17T12:38:00.906Z,8.2
2017-11-17T12:39:19.559Z,8.2
2017-11-17T12:40:38.228Z,8.3
2017-11-17T12:41:56.883Z,8.2
2017-11-17T12:43:15.559Z,8.2
2017-11-17T12:44:34.219Z,8.2
2017-11-17T12:45:52.941Z,8.3
2017-11-17T12:47:11.608Z,8.3
2017-11-17T12:48:30.261Z,8.2
2017-11-17T12:49:48.927Z,8
2017-11-17T12:51:07.575Z,7.9
2017-11-17T12:52:26.230Z,8
2017-11-17T12:53:44.868Z,8
2017-11-17T12:55:03.518Z,7.9
2017-11-17T12:56:22.184Z,8
2017-11-17T12:57:40.832Z,8
2017-11-17T12:58:59.480Z,7.9
2017-11-17T13:00:18.119Z,7.9
2017-11-17T13:01:36.835Z,7.8
2017-11-17T13:02:55.510Z,7.7
2017-11-17T13:04:14.161Z,7.6
2017-11-17T13:05:32.807Z,7.7
2017-11-17T13:06:51.476Z,7.6
2017-11-17T13:08:10.183Z,7.5
2017-11-17T13:09:28.854Z,7.5
2017-11-17T13:10:47.534Z,7.5
2017-11-17T13:12:06.194Z,7.4
2017-11-17T13:13:24.878Z,7.4
2017-11-17T13:14:43.554Z,7.3
2017-11-17T13:16:02.190Z,7.3
2017-11-17T13:17:20.887Z,7.3
2017-11-17T13:18:39.557Z,7.2
2017-11-17T13:19:58.197Z,7.1
2017-11-17T13:21:16.849Z,7.2
2017-11-17T13:22:35.559Z,7.2
2017-11-17T13:23:54.261Z,7.3
2017-11-17T13:25:12.931Z,7.4
2017-11-17T13:26:31.587Z,7.3
2017-11-17T13:27:50.277Z,7.3
2017-11-17T13:29:08.945Z,7.2
2017-11-17T13:30:27.640Z,7.3
2017-11-17T13:31:46.281Z,7.3
2017-11-17T13:33:04.952Z,7.2
2017-11-17T13:34:23.669Z,7.2
2017-11-17T13:35:42.313Z,7.2
2017-11-17T13:37:00.990Z,7.1
2017-11-17T13:38:19.662Z,7.1
2017-11-17T13:39:38.308Z,7
2017-11-17T13:40:56.997Z,7
2017-11-17T13:42:15.644Z,7
2017-11-17T13:43:34.355Z,6.9
2017-11-17T13:44:53.004Z,6.9
2017-11-17T13:46:11.655Z,6.8
2017-11-17T13:47:30.338Z,6.7
2017-11-17T13:48:48.997Z,6.6
2017-11-17T13:50:07.717Z,6.7
2017-11-17T13:51:26.359Z,6.7
2017-11-17T13:52:45.070Z,6.6
2017-11-17T13:54:03.760Z,6.6
2017-11-17T13:55:22.474Z,6.6
2017-11-17T13:56:41.141Z,6.6
2017-11-17T13:57:59.810Z,6.7
2017-11-17T13:59:18.485Z,6.7
2017-11-17T14:00:37.133Z,6.8
2017-11-17T14:01:55.778Z,6.8
2017-11-17T14:03:14.458Z,6.8
2017-11-17T14:04:33.122Z,6.8
2017-11-17T14:05:51.776Z,6.8
2017-11-17T14:07:10.426Z,6.8
2017-11-17T14:08:29.070Z,6.7
2017-11-17T14:09:47.731Z,6.6
2017-11-17T14:11:06.381Z,6.6
2017-11-17T14:12:25.047Z,6.5
2017-11-17T14:13:43.699Z,6.6
2017-11-17T14:15:02.372Z,6.5
2017-11-17T14:16:21.014Z,6.5
2017-11-17T14:17:39.663Z,6.5
2017-11-17T14:18:58.308Z,6.5
2017-11-17T14:20:16.969Z,6.5
2017-11-17T14:21:35.678Z,6.5
2017-11-17T14:22:54.373Z,6.3
2017-11-17T14:24:13.011Z,6.2
2017-11-17T14:25:31.673Z,6.3
2017-11-17T14:26:50.327Z,6.3
2017-11-17T14:28:08.980Z,6.2
2017-11-17T14:29:27.663Z,6.2
2017-11-17T14:30:46.323Z,6.3
2017-11-17T14:32:05.007Z,6.2
2017-11-17T14:33:23.693Z,6.2
2017-11-17T14:34:42.391Z,6.1
2017-11-17T14:36:01.075Z,6.1
2017-11-17T14:37:19.755Z,6.1
2017-11-17T14:38:38.458Z,6
2017-11-17T14:39:57.121Z,6
2017-11-17T14:41:15.795Z,6.1
2017-11-17T14:42:34.479Z,6.1
2017-11-17T14:43:53.184Z,6.1
2017-11-17T14:45:11.834Z,6.1
2017-11-17T14:46:30.550Z,6
2017-11-17T14:47:49.198Z,6
2017-11-17T14:49:07.892Z,6
2017-11-17T14:50:26.548Z,6
2017-11-17T14:51:45.205Z,5.9
2017-11-17T14:53:03.896Z,5.9
2017-11-17T14:54:22.552Z,5.9
2017-11-17T14:55:41.203Z,5.9
2017-11-17T14:56:59.961Z,5.9
2017-11-17T14:58:18.621Z,5.9
2017-11-17T14:59:37.292Z,5.8
2017-11-17T15:00:55.948Z,5.8
2017-11-17T15:02:14.601Z,5.8
2017-11-17T15:03:33.307Z,5.9
2017-11-17T15:04:51.960Z,5.8
2017-11-17T15:06:10.640Z,5.8
2017-11-17T15:07:29.348Z,5.7
2017-11-17T15:08:48.000Z,5.7
2017-11-17T15:10:06.693Z,5.7
2017-11-17T15:11:25.353Z,5.7
2017-11-17T15:12:44.027Z,5.7
2017-11-17T15:14:02.714Z,5.7
2017-11-17T15:15:21.420Z,5.7
2017-11-17T15:16:40.087Z,5.7
2017-11-17T15:17:58.750Z,5.7
2017-11-17T15:19:17.409Z,5.7
2017-11-17T15:20:36.068Z,5.7
2017-11-17T15:21:54.774Z,5.8
2017-11-17T15:23:13.497Z,5.8
2017-11-17T15:24:32.196Z,5.8
2017-11-17T15:25:50.861Z,5.7
2017-11-17T15:27:09.510Z,5.5
2017-11-17T15:28:28.239Z,5.6
2017-11-17T15:29:46.884Z,5.6
2017-11-17T15:31:05.581Z,5.7
2017-11-17T15:32:24.240Z,5.6
2017-11-17T15:33:42.908Z,5.7
2017-11-17T15:35:01.561Z,5.7
2017-11-17T15:36:20.219Z,5.7
2017-11-17T15:37:38.874Z,5.7
2017-11-17T15:38:57.540Z,5.6
2017-11-17T15:40:16.210Z,5.5
2017-11-17T15:41:34.888Z,5.5
2017-11-17T15:42:53.558Z,5.4
2017-11-17T15:44:12.280Z,5.5
2017-11-17T15:45:30.966Z,5.5
2017-11-17T15:46:49.629Z,5.5
2017-11-17T15:48:08.288Z,5.5
2017-11-17T15:49:26.951Z,5.5
2017-11-17T15:50:45.617Z,5.5
2017-11-17T15:52:04.279Z,5.6
2017-11-17T15:53:22.948Z,5.6
2017-11-17T15:54:41.609Z,5.7
2017-11-17T15:56:00.288Z,5.6
2017-11-17T15:57:19.003Z,5.6
2017-11-17T15:58:37.663Z,5.7
2017-11-17T15:59:56.359Z,5.6
2017-11-17T16:01:15.064Z,5.7
2017-11-17T16:02:33.715Z,5.6
2017-11-17T16:03:52.369Z,5.6
2017-11-17T16:05:11.031Z,5.5
2017-11-17T16:06:29.764Z,5.6
2017-11-17T16:07:48.421Z,5.5
2017-11-17T16:09:07.127Z,5.6
2017-11-17T16:10:25.858Z,5.5
2017-11-17T16:11:44.541Z,5.6
2017-11-17T16:13:03.231Z,5.5
2017-11-17T16:14:21.905Z,5.5
2017-11-17T16:15:40.570Z,5.5
2017-11-17T16:16:59.217Z,5.5
2017-11-17T16:18:17.868Z,5.6
2017-11-17T16:19:36.529Z,5.6
2017-11-17T16:20:55.195Z,5.7
2017-11-17T16:22:13.847Z,5.7
2017-11-17T16:23:32.552Z,5.7
2017-11-17T16:24:51.204Z,5.7
2017-11-17T16:26:09.893Z,5.7
2017-11-17T16:27:28.580Z,5.7
2017-11-17T16:28:47.289Z,5.6
2017-11-17T16:30:05.939Z,5.5
2017-11-17T16:31:24.631Z,5.4
2017-11-17T16:32:43.305Z,5.3
2017-11-17T16:34:01.962Z,5.3
2017-11-17T16:35:20.618Z,5.3
2017-11-17T16:36:39.282Z,5.4
2017-11-17T16:37:57.965Z,5.5
2017-11-17T16:39:16.646Z,5.5
2017-11-17T16:40:35.385Z,5.6
2017-11-17T16:41:54.051Z,5.6
2017-11-17T16:43:12.722Z,5.6
2017-11-17T16:44:31.372Z,5.6
2017-11-17T16:45:50.023Z,5.6
2017-11-17T16:47:08.692Z,5.6
2017-11-17T16:48:27.366Z,5.5
2017-11-17T16:49:46.010Z,5.4
2017-11-17T16:51:04.680Z,5.3
2017-11-17T16:52:23.355Z,5.3
2017-11-17T16:53:42.004Z,5.3
2017-11-17T16:55:00.662Z,5.3
2017-11-17T16:56:19.326Z,5.3
2017-11-17T16:57:38.002Z,5.3
2017-11-17T16:58:56.667Z,5.4
2017-11-17T17:00:15.314Z,5.4
2017-11-17T17:01:34.014Z,5.5
2017-11-17T17:02:52.684Z,5.4
2017-11-17T17:04:11.365Z,5.3
2017-11-17T17:05:30.027Z,5.3
2017-11-17T17:06:48.685Z,5.3
2017-11-17T17:08:07.375Z,5.3
2017-11-17T17:09:26.025Z,5.2
2017-11-17T17:10:44.677Z,5.2
2017-11-17T17:12:03.343Z,5.1
2017-11-17T17:13:22.002Z,5.1
2017-11-17T17:14:40.668Z,5.1
2017-11-17T17:15:59.354Z,5.1
2017-11-17T17:17:18.055Z,5
2017-11-17T17:18:36.731Z,5
2017-11-17T17:19:55.382Z,4.9
2017-11-17T17:21:14.025Z,4.9
2017-11-17T17:22:32.735Z,4.9
2017-11-17T17:23:51.396Z,4.9
2017-11-17T17:25:10.049Z,4.9
2017-11-17T17:26:28.704Z,4.9
2017-11-17T17:27:47.369Z,4.9
2017-11-17T17:29:06.027Z,4.9
2017-11-17T17:30:24.692Z,4.9
2017-11-17T17:31:43.354Z,4.9
2017-11-17T17:33:02.006Z,4.9
2017-11-17T17:34:20.676Z,4.9
2017-11-17T17:35:39.409Z,5
2017-11-17T17:36:58.057Z,4.9
2017-11-17T17:38:16.759Z,4.9
2017-11-17T17:39:35.417Z,5
2017-11-17T17:40:54.084Z,4.9
2017-11-17T17:42:12.742Z,4.9
2017-11-17T17:43:31.398Z,4.9
2017-11-17T17:44:50.086Z,4.8
2017-11-17T17:46:08.749Z,4.8
2017-11-17T17:47:27.402Z,4.8
2017-11-17T17:48:46.062Z,4.8
2017-11-17T17:50:04.754Z,4.8
2017-11-17T17:51:23.417Z,4.8
2017-11-17T17:52:42.130Z,4.8
2017-11-17T17:54:00.779Z,4.8
2017-11-17T17:55:19.444Z,4.9
2017-11-17T17:56:38.102Z,4.9
2017-11-17T17:57:56.776Z,4.9
2017-11-17T17:59:15.460Z,4.9
2017-11-17T18:00:34.166Z,5
2017-11-17T18:01:52.835Z,5
2017-11-17T18:03:11.535Z,5
2017-11-17T18:04:30.187Z,5
2017-11-17T18:05:48.851Z,5
2017-11-17T18:07:07.579Z,5
2017-11-17T18:08:26.285Z,5